Data for 09/23/2010

Time Sea-Level Adjusted Pressure Absolute Pressure Temperature Relative Humidity Dew Point   
(mb) (inHg) (mb) (inHg) (C) (F) (%) (C) (F)
00:05 1013 29.91 842 24.86 6.4 43.5 86 4.3 39.7
00:10 1013 29.91 842 24.86 6.3 43.4 86 4.2 39.6
00:15 1013 29.91 842 24.86 6.3 43.4 86 4.2 39.5
00:20 1013 29.91 842 24.86 6.4 43.4 86 4.2 39.5
00:25 1013 29.91 842 24.86 6.3 43.3 87 4.3 39.7
00:30 1013 29.91 842 24.86 6.2 43.2 87 4.2 39.6
00:35 1013 29.91 842 24.86 6.1 43 87 4.1 39.5
00:40 1013 29.91 842 24.86 6 42.9 87 4.1 39.3
00:45 1013 29.91 842 24.86 6 42.9 87 4 39.2
00:50 1013 29.91 842 24.86 6 42.8 87 3.9 39.1
00:55 1013 29.91 842 24.86 5.9 42.7 87 3.9 39.1
01:00 1013 29.91 842 24.86 5.9 42.6 87 3.9 39
01:05 1013 29.91 842 24.86 5.9 42.6 86 3.8 38.8
01:10 1013 29.91 842 24.86 5.9 42.6 86 3.7 38.7
01:15 1013 29.91 842 24.86 5.9 42.7 86 3.8 38.8
01:20 1013 29.91 842 24.86 5.9 42.7 86 3.8 38.9
01:25 1013 29.91 842 24.86 5.9 42.7 87 3.9 38.9
01:30 1013 29.91 842 24.86 6 42.7 86 3.9 39
01:35 1013 29.91 842 24.86 6 42.8 86 3.8 38.9
01:40 1013 29.91 842 24.86 6 42.8 86 3.8 38.9
01:45 1013 29.91 842 24.86 6.1 42.9 85 3.8 38.8
01:50 1013 29.91 842 24.86 6.1 43 84 3.6 38.5
01:55 1013 29.91 842 24.86 6.2 43.1 84 3.7 38.6
02:00 1013 29.91 842 24.86 6.1 43.1 84 3.7 38.7
02:05 1013 29.91 842 24.86 6.2 43.1 85 3.8 38.8
02:10 1013 29.91 843 24.89 6.1 43.1 84 3.7 38.7
02:15 1013 29.91 843 24.89 6.2 43.1 83 3.5 38.4
02:20 1013 29.91 843 24.89 6.3 43.3 83 3.5 38.3
02:25 1013 29.91 843 24.89 6.3 43.3 82 3.5 38.3
02:30 1013 29.91 843 24.89 6.3 43.3 83 3.6 38.4
02:35 1014 29.94 843 24.89 6.2 43.2 83 3.5 38.3
02:40 1014 29.94 843 24.89 6.2 43.2 83 3.6 38.4
02:45 1014 29.94 843 24.89 6.1 42.9 85 3.7 38.6
02:50 1014 29.94 843 24.89 6 42.8 85 3.6 38.5
02:55 1014 29.94 843 24.89 6.1 43 84 3.6 38.5
03:00 1014 29.94 843 24.89 6.1 43.1 84 3.6 38.5
03:05 1014 29.94 843 24.89 6.2 43.1 85 3.7 38.7
03:10 1014 29.94 843 24.89 6.2 43.1 84 3.7 38.7
03:15 1014 29.94 843 24.89 6.1 43.1 85 3.8 38.9
03:20 1014 29.94 843 24.89 6.1 43.1 85 3.9 39
03:25 1014 29.94 843 24.89 6 42.9 86 3.9 39
03:30 1014 29.94 843 24.89 6 42.7 86 3.8 38.8
03:35 1014 29.94 843 24.89 6 42.8 85 3.7 38.6
03:40 1014 29.94 843 24.89 6.1 42.9 85 3.7 38.7
03:45 1014 29.94 843 24.89 6.1 43 85 3.8 38.8
03:50 1014 29.94 843 24.89 6.1 43 85 3.7 38.7
03:55 1014 29.94 843 24.89 6.1 42.9 85 3.7 38.7
04:00 1014 29.94 843 24.89 6.1 43 84 3.7 38.6
04:05 1014 29.94 843 24.89 6.1 43 85 3.8 38.8
04:10 1014 29.94 843 24.89 6 42.8 86 3.8 38.9
04:15 1014 29.94 843 24.89 6 42.7 86 3.8 38.8
04:20 1014 29.94 843 24.89 5.9 42.6 86 3.7 38.6
04:25 1014 29.94 843 24.89 5.9 42.6 86 3.7 38.6
04:30 1014 29.94 843 24.89 5.9 42.6 86 3.7 38.7
04:35 1014 29.94 843 24.89 5.9 42.7 86 3.7 38.7
04:40 1014 29.94 843 24.89 5.9 42.7 87 4 39.1
04:45 1014 29.94 843 24.89 5.8 42.5 87 3.9 39
04:50 1014 29.94 843 24.89 5.8 42.4 87 3.8 38.8
04:55 1014 29.94 843 24.89 5.8 42.4 87 3.8 38.8
05:00 1014 29.94 843 24.89 5.7 42.2 87 3.7 38.7
05:05 1014 29.94 843 24.89 5.6 42.2 88 3.7 38.7
05:10 1014 29.94 843 24.89 5.6 42.1 88 3.8 38.8
05:15 1014 29.94 843 24.89 5.6 42 88 3.7 38.6
05:20 1014 29.94 843 24.89 5.5 41.8 88 3.6 38.5
05:25 1014 29.94 843 24.89 5.4 41.7 89 3.6 38.6
05:30 1014 29.94 843 24.89 5.4 41.7 88 3.5 38.4
05:35 1014 29.94 843 24.89 5.4 41.7 88 3.5 38.4
05:40 1014 29.94 843 24.89 5.5 41.8 87 3.5 38.3
05:45 1014 29.94 843 24.89 5.3 41.6 88 3.5 38.3
05:50 1014 29.94 843 24.89 5.3 41.5 88 3.4 38.1
05:55 1014 29.94 843 24.89 5.3 41.5 87 3.3 38
06:00 1014 29.94 843 24.89 5.1 41.2 88 3.3 37.9
06:05 1014 29.94 843 24.89 5 40.9 88 3.1 37.6
06:10 1014 29.94 843 24.89 4.7 40.5 89 3 37.4
06:15 1014 29.94 843 24.89 4.5 40.1 89 2.8 37.1
06:20 1014 29.94 843 24.89 4.6 40.3 88 2.8 37.1
06:25 1014 29.94 844 24.92 4.4 40 89 2.7 36.9
06:30 1014 29.94 844 24.92 4.4 39.9 88 2.6 36.7
06:35 1014 29.94 844 24.92 4.4 39.9 88 2.6 36.6
06:40 1014 29.94 844 24.92 4.2 39.5 89 2.5 36.5
06:45 1014 29.94 844 24.92 4.1 39.3 90 2.6 36.6
06:50 1015 29.97 844 24.92 4 39.2 91 2.7 36.8
06:55 1015 29.97 844 24.92 4 39.2 91 2.6 36.7
07:00 1015 29.97 844 24.92 3.9 39.1 91 2.6 36.7
07:05 1015 29.97 844 24.92 3.9 39 92 2.7 36.8
07:10 1015 29.97 844 24.92 4 39.2 91 2.7 36.9
07:15 1015 29.97 844 24.92 4.1 39.4 91 2.8 37
07:20 1015 29.97 844 24.92 4.2 39.5 90 2.7 36.8
07:25 1015 29.97 844 24.92 4 39.2 91 2.6 36.8
07:30 1015 29.97 844 24.92 4.1 39.4 90 2.6 36.6
07:35 1015 29.97 844 24.92 4.2 39.5 89 2.6 36.6
07:40 1015 29.97 844 24.92 4.4 39.9 88 2.6 36.7
07:45 1015 29.97 844 24.92 4.4 39.9 88 2.6 36.7
07:50 1015 29.97 844 24.92 4.5 40.1 87 2.6 36.6
07:55 1015 29.97 844 24.92 4.7 40.4 86 2.5 36.6
08:00 1015 29.97 844 24.92 4.9 40.8 85 2.5 36.6
08:05 1015 29.97 844 24.92 5 41 85 2.6 36.7
08:10 1015 29.97 844 24.92 5.1 41.3 84 2.6 36.7
08:15 1015 29.97 844 24.92 5.4 41.7 82 2.6 36.7
08:20 1015 29.97 845 24.95 5.7 42.3 81 2.7 36.8
08:25 1015 29.97 845 24.95 6.2 43.1 79 2.7 36.9
08:30 1015 29.97 845 24.95 6.6 43.8 77 2.9 37.2
08:35 1015 29.97 845 24.95 7 44.6 74 2.7 36.9
08:40 1016 30 845 24.95 7.7 45.9 71 2.8 37.1
08:45 1016 30 845 24.95 7.9 46.3 72 3.1 37.6
08:50 1016 30 845 24.95 8 46.3 71 3.1 37.5
08:55 1016 30 845 24.95 7.8 46.1 72 3.1 37.7
09:00 1016 30 845 24.95 8 46.3 71 3.1 37.5
09:05 1016 30 845 24.95 8.2 46.7 71 3.3 38
09:10 1016 30 845 24.95 9 48.2 67 3.2 37.8
09:15 1016 30 845 24.95 9.6 49.3 66 3.6 38.5
09:20 1016 30 845 24.95 10 49.9 66 4 39.2
09:25 1016 30 845 24.95 10.5 50.8 64 4 39.3
09:30 1016 30 845 24.95 10.8 51.5 62 3.9 39.1
09:35 1016 30 845 24.95 11.5 52.6 60 4.1 39.3
09:40 1016 30 845 24.95 11.5 52.6 59 3.8 38.8
09:45 1016 30 845 24.95 11.6 52.9 59 3.9 39
09:50 1016 30 845 24.95 11.5 52.7 59 3.9 39
09:55 1016 30 845 24.95 11.9 53.5 57 3.9 38.9
10:00 1016 30 845 24.95 12.1 53.8 58 4.1 39.4
10:05 1016 30 845 24.95 11.6 52.9 59 4 39.2
10:10 1016 30 845 24.95 12 53.6 57 3.7 38.7
10:15 1016 30 845 24.95 12.3 54.2 57 4 39.2
10:20 1016 30 845 24.95 12.4 54.4 57 4.1 39.5
10:25 1016 30 845 24.95 12.7 54.9 54 3.8 38.9
10:30 1016 30 845 24.95 12.3 54.2 57 4.1 39.4
10:35 1016 30 845 24.95 12.9 55.3 54 3.9 39
10:40 1016 30 845 24.95 13.4 56.2 53 4.1 39.3
10:45 1016 30 845 24.95 13.4 56.2 54 4.5 40
10:50 1016 30 845 24.95 13.5 56.3 54 4.5 40.1
10:55 1016 30 845 24.95 13.3 55.9 55 4.5 40.1
11:00 1016 30 845 24.95 13.7 56.6 54 4.6 40.4
11:05 1016 30 845 24.95 14 57.3 53 4.7 40.4
11:10 1016 30 845 24.95 13.9 57 54 4.8 40.6
11:15 1016 30 845 24.95 14.2 57.5 52 4.6 40.2
11:20 1016 30 845 24.95 13.8 56.9 54 4.8 40.6
11:25 1016 30 845 24.95 14.3 57.8 50 4.1 39.4
11:30 1016 30 845 24.95 14.7 58.4 49 4.2 39.6
11:35 1016 30 845 24.95 14.7 58.5 50 4.5 40
11:40 1016 30 845 24.95 14.1 57.4 53 4.8 40.6
11:45 1016 30 845 24.95 14.5 58.2 51 4.5 40.1
11:50 1016 30 845 24.95 14.9 58.8 50 4.6 40.3
11:55 1016 30 845 24.95 15.4 59.7 48 4.6 40.3
12:00 1016 30 845 24.95 14.7 58.5 50 4.5 40.1
12:05 1016 30 845 24.95 15 58.9 51 4.9 40.8
12:10 1016 30 845 24.95 14.6 58.3 51 4.7 40.5
12:15 1016 30 845 24.95 15 58.9 50 4.8 40.6
12:20 1016 30 845 24.95 15.3 59.5 48 4.3 39.7
12:25 1016 30 845 24.95 15.5 59.8 49 4.8 40.7
12:30 1016 30 845 24.95 15.3 59.5 47 4.2 39.6
12:35 1016 30 845 24.95 15.2 59.4 51 5.3 41.5
12:40 1016 30 845 24.95 14.9 58.8 50 4.7 40.5
12:45 1016 30 845 24.95 15.1 59.2 49 4.4 40
12:50 1016 30 845 24.95 15.7 60.3 47 4.4 40
12:55 1016 30 845 24.95 16.4 61.5 45 4.5 40
13:00 1016 30 845 24.95 16.4 61.4 45 4.6 40.3
13:05 1016 30 845 24.95 16.8 62.3 44 4.5 40.1
13:10 1016 30 845 24.95 15.8 60.5 47 4.7 40.5
13:15 1016 30 845 24.95 16.1 60.9 45 4.4 39.9
13:20 1016 30 845 24.95 16.7 62.1 42 4 39.1
13:25 1016 30 845 24.95 16.6 61.8 42 3.7 38.7
13:30 1016 30 845 24.95 17.3 63.1 39 3.4 38.2
13:35 1016 30 845 24.95 17.6 63.7 40 4 39.2
13:40 1016 30 845 24.95 17.2 62.9 39 3 37.5
13:45 1016 30 845 24.95 17.7 63.8 37 3 37.4
13:50 1016 30 845 24.95 18.2 64.7 37 3.2 37.8
13:55 1016 30 845 24.95 18.6 65.5 36 3.4 38.1
14:00 1016 30 845 24.95 18.8 65.9 34 2.6 36.7
14:05 1016 30 845 24.95 18.9 66.1 34 2.8 37.1
14:10 1016 30 845 24.95 19.1 66.3 34 3 37.4
14:15 1016 30 845 24.95 19.5 67.1 33 2.9 37.2
14:20 1016 30 845 24.95 19.3 66.8 33 2.9 37.2
14:25 1015 29.97 845 24.95 19.1 66.4 35 3.4 38
14:30 1015 29.97 844 24.92 18.7 65.7 34 2.7 36.8
14:35 1015 29.97 845 24.95 19.2 66.6 33 2.9 37.2
14:40 1015 29.97 845 24.95 19.1 66.3 34 2.9 37.2
14:45 1015 29.97 845 24.95 19.1 66.3 34 2.9 37.2
14:50 1015 29.97 844 24.92 19.2 66.6 33 2.6 36.8
14:55 1015 29.97 844 24.92 18.8 65.8 33 2.5 36.5
15:00 1015 29.97 844 24.92 19.3 66.8 34 3.1 37.6
15:05 1015 29.97 844 24.92 19.4 66.9 33 3 37.4
15:10 1015 29.97 844 24.92 19.2 66.6 32 2.4 36.3
15:15 1015 29.97 844 24.92 19.5 67.2 32 2.5 36.6
15:20 1015 29.97 844 24.92 19.8 67.6 31 2.5 36.6
15:25 1015 29.97 844 24.92 19.4 66.9 32 2.4 36.3
15:30 1015 29.97 844 24.92 19 66.3 31 1.9 35.4
15:35 1015 29.97 844 24.92 18.9 66.1 30 1.2 34.2
15:40 1015 29.97 844 24.92 19.4 66.9 29 1.2 34.2
15:45 1015 29.97 844 24.92 19.2 66.5 31 1.7 35
15:50 1015 29.97 844 24.92 18.7 65.7 32 1.7 35.1
15:55 1015 29.97 844 24.92 18.4 65.2 32 1.4 34.5
16:00 1015 29.97 844 24.92 18.4 65.1 31 1.1 34
16:05 1015 29.97 844 24.92 19.2 66.5 30 1.3 34.3
16:10 1015 29.97 844 24.92 19.8 67.7 27 0.4 32.8
16:15 1015 29.97 844 24.92 19.8 67.7 26 0.1 32.2
16:20 1015 29.97 844 24.92 19.7 67.5 26 -0.1 31.8
16:25 1015 29.97 844 24.92 19.1 66.4 26 -0.6 31
16:30 1015 29.97 844 24.92 19.1 66.4 26 -0.7 30.8
16:35 1015 29.97 844 24.92 19.3 66.7 26 -0.5 31.2
16:40 1015 29.97 844 24.92 19.3 66.7 25 -1.2 29.8
16:45 1015 29.97 844 24.92 19.6 67.2 25 -0.6 31
16:50 1015 29.97 844 24.92 19.5 67.1 25 -0.7 30.8
16:55 1015 29.97 844 24.92 19.7 67.5 25 -0.6 30.9
17:00 1015 29.97 844 24.92 19.6 67.3 24 -1.1 30
17:05 1015 29.97 844 24.92 19.7 67.4 24 -1.1 30
17:10 1015 29.97 844 24.92 19.4 66.9 26 -0.3 31.4
17:15 1015 29.97 844 24.92 18.7 65.7 27 -0.6 31
17:20 1015 29.97 844 24.92 18.9 66 24 -2.2 28
17:25 1015 29.97 844 24.92 18.8 65.9 25 -1.4 29.5
17:30 1015 29.97 844 24.92 19.2 66.6 25 -1.4 29.5
17:35 1015 29.97 844 24.92 19.7 67.5 24 -1 30.2
17:40 1015 29.97 844 24.92 19.8 67.6 23 -1.8 28.8
17:45 1015 29.97 844 24.92 19.8 67.6 23 -1.9 28.6
17:50 1015 29.97 844 24.92 19.9 67.8 23 -1.6 29.1
17:55 1015 29.97 844 24.92 19.6 67.2 23 -2.3 27.9
18:00 1015 29.97 844 24.92 19.7 67.5 23 -1.7 28.9
18:05 1015 29.97 844 24.92 19.8 67.6 23 -1.9 28.7
18:10 1015 29.97 844 24.92 19.9 67.7 24 -1.3 29.7
18:15 1015 29.97 844 24.92 19.7 67.5 21 -2.8 27
18:20 1015 29.97 845 24.95 19.9 67.8 22 -2.3 27.8
18:25 1015 29.97 845 24.95 20 67.9 23 -1.9 28.6
18:30 1015 29.97 845 24.95 19.6 67.3 24 -1.5 29.4
18:35 1016 30 845 24.95 19.1 66.3 22 -3 26.5
18:40 1016 30 845 24.95 18.7 65.7 24 -2.3 27.9
18:45 1016 30 845 24.95 18.5 65.2 22 -3.2 26.2
18:50 1016 30 845 24.95 18.4 65.2 21 -4.1 24.6
18:55 1016 30 845 24.95 18.2 64.7 24 -2.9 26.8
19:00 1016 30 845 24.95 16.6 61.8 26 -2.9 26.8
19:05 1016 30 845 24.95 15.7 60.3 26 -3.8 25.1
19:10 1016 30 845 24.95 15.8 60.4 24 -4.7 23.6
19:15 1016 30 845 24.95 16 60.8 23 -5.2 22.6
19:20 1016 30 845 24.95 15.6 60.1 25 -4.1 24.6
19:25 1016 30 845 24.95 15 58.9 26 -4.4 24.1
19:30 1016 30 845 24.95 14.6 58.2 27 -4.3 24.3
19:35 1016 30 845 24.95 14.4 58 26 -4.5 23.8
19:40 1016 30 845 24.95 14.3 57.8 27 -4.6 23.8
19:45 1016 30 845 24.95 14.1 57.4 27 -4.6 23.7
19:50 1016 30 846 24.98 14.2 57.5 27 -4.6 23.8
19:55 1016 30 846 24.98 14.1 57.3 27 -4.4 24.1
20:00 1016 30 846 24.98 14 57.1 26 -5.1 22.8
20:05 1016 30 846 24.98 14.4 57.8 25 -5.5 22.2
20:10 1016 30 846 24.98 14.5 58.1 26 -4.5 23.9
20:15 1017 30.03 846 24.98 13.9 56.9 30 -3.3 26
20:20 1017 30.03 846 24.98 12.9 55.3 32 -3.3 26.1
20:25 1017 30.03 846 24.98 12.7 54.9 31 -3.7 25.3
20:30 1017 30.03 846 24.98 12.8 55.1 31 -3.7 25.4
20:35 1017 30.03 846 24.98 13 55.5 31 -3.7 25.3
20:40 1017 30.03 846 24.98 12.9 55.3 30 -4 24.8
20:45 1017 30.03 846 24.98 12.8 55.1 31 -3.8 25.2
20:50 1017 30.03 846 24.98 12.7 54.8 33 -3.3 26.1
20:55 1017 30.03 846 24.98 12.4 54.4 35 -2.4 27.7
21:00 1017 30.03 846 24.98 12.1 53.7 35 -2.7 27.2
21:05 1017 30.03 846 24.98 12.2 53.9 36 -2.3 27.8
21:10 1017 30.03 846 24.98 12 53.5 37 -2.1 28.2
21:15 1017 30.03 846 24.98 11.9 53.5 37 -2.4 27.7
21:20 1017 30.03 847 25.01 12 53.5 37 -2.4 27.7
21:25 1017 30.03 847 25.01 11.8 53.3 37 -2.5 27.6
21:30 1017 30.03 847 25.01 11.5 52.6 36 -3 26.6
21:35 1018 30.06 847 25.01 11.3 52.4 38 -2.5 27.4
21:40 1018 30.06 847 25.01 10.9 51.7 38 -2.7 27.1
21:45 1018 30.06 847 25.01 10.8 51.4 41 -1.9 28.5
21:50 1018 30.06 847 25.01 10.3 50.5 42 -2 28.5
21:55 1018 30.06 847 25.01 9.9 49.7 44 -1.8 28.8
22:00 1018 30.06 847 25.01 9.6 49.4 45 -1.6 29.2
22:05 1018 30.06 847 25.01 9.6 49.2 42 -2.7 27.1
22:10 1018 30.06 847 25.01 10.2 50.4 39 -3.1 26.5
22:15 1018 30.06 847 25.01 10.6 51 39 -2.9 26.7
22:20 1018 30.06 847 25.01 10.6 51.1 39 -2.8 27
22:25 1018 30.06 847 25.01 10.6 51 39 -2.7 27.2
22:30 1018 30.06 847 25.01 10.4 50.7 40 -2.5 27.4
22:35 1018 30.06 847 25.01 10.1 50.2 39 -3.2 26.3
22:40 1018 30.06 847 25.01 10.1 50.3 41 -2.6 27.3
22:45 1018 30.06 847 25.01 10.2 50.4 39 -3 26.6
22:50 1018 30.06 847 25.01 10.3 50.5 39 -3.1 26.4
22:55 1018 30.06 847 25.01 10.3 50.6 38 -3.5 25.8
23:00 1018 30.06 847 25.01 10.6 51.2 35 -4.1 24.6
23:05 1018 30.06 847 25.01 10.8 51.4 34 -4.3 24.3
23:10 1018 30.06 847 25.01 10.8 51.5 34 -4.3 24.2
23:15 1018 30.06 847 25.01 10.6 51.1 36 -3.7 25.3
23:20 1018 30.06 847 25.01 10.5 50.9 35 -4.2 24.5
23:25 1018 30.06 847 25.01 10.5 50.8 36 -4 24.8
23:30 1018 30.06 847 25.01 10.1 50.3 38 -3.3 26
23:35 1018 30.06 847 25.01 10.1 50.1 38 -3.5 25.8
23:40 1018 30.06 848 25.04 10.1 50.2 37 -3.9 25
23:45 1018 30.06 848 25.04 10.1 50.1 38 -3.7 25.4
23:50 1018 30.06 848 25.04 9.9 49.9 39 -3.3 26.1
23:55 1018 30.06 848 25.04 9.6 49.2 42 -2.7 27.1
24:00 1018 30.06 848 25.04 9.1 48.4 41 -3.3 26